Time;durP1;ratioP1;P1;durP2;ratioP2;P2;SDS_P1;SDS_P2;PMS_P1;PMS_P2;Temp;Humidity;BMP_temperature;BMP_pressure;BME280_temperature;BME280_humidity;BME280_pressure;Samples;Min_cycle;Max_cycle;Signal;HPM_P1;HPM_P2
2021/11/21 00:00:47;;;;;;;11.48;5.82;;;;;;;9.24;93.98;101568.78;5076769;28;20476;-67
2021/11/21 00:03:12;;;;;;;11.77;5.82;;;;;;;9.25;94.13;101570.53;5075632;28;20039;-67
2021/11/21 00:05:41;;;;;;;12.52;5.85;;;;;;;9.23;94.31;101565.25;5075248;28;20028;-67
2021/11/21 00:08:08;;;;;;;13.75;7.45;;;;;;;9.17;94.54;101558.38;5066301;28;20025;-67
2021/11/21 00:10:34;;;;;;;12.15;6.43;;;;;;;9.16;94.62;101564.56;5055566;28;20083;-67
2021/11/21 00:13:00;;;;;;;11.75;6.30;;;;;;;9.13;94.69;101550.56;5071632;28;20037;-68
2021/11/21 00:15:26;;;;;;;9.52;5.97;;;;;;;9.13;95.18;101558.50;5058359;28;20454;-67
2021/11/21 00:17:51;;;;;;;11.35;5.80;;;;;;;9.16;94.45;101548.72;5075204;28;20025;-67
2021/11/21 00:20:17;;;;;;;11.73;5.68;;;;;;;9.19;94.03;101545.13;5075275;28;20016;-67
2021/11/21 00:22:44;;;;;;;11.80;5.85;;;;;;;9.21;93.82;101535.38;5076351;28;20043;-67
2021/11/21 00:25:09;;;;;;;11.55;5.50;;;;;;;9.19;93.72;101534.53;5075133;28;20033;-66
2021/11/21 00:27:35;;;;;;;10.82;5.63;;;;;;;9.21;93.67;101542.41;5074798;28;20033;-68
2021/11/21 00:30:00;;;;;;;10.40;5.22;;;;;;;9.20;93.66;101536.28;5075217;28;20048;-68
2021/11/21 00:32:25;;;;;;;9.05;5.07;;;;;;;9.22;93.35;101523.91;5074698;28;20044;-66
2021/11/21 00:34:51;;;;;;;12.20;5.65;;;;;;;9.26;93.37;101530.84;5076237;28;20555;-67
2021/11/21 00:37:16;;;;;;;12.85;5.22;;;;;;;9.26;93.60;101520.25;5074929;28;20107;-67
2021/11/21 00:39:41;;;;;;;9.25;5.53;;;;;;;9.27;93.46;101529.94;5075259;28;20039;-67
2021/11/21 00:42:07;;;;;;;9.27;4.70;;;;;;;9.31;93.08;101528.03;5075166;28;20103;-67
2021/11/21 00:44:32;;;;;;;8.68;4.72;;;;;;;9.32;93.28;101524.50;5075769;28;20547;-68
2021/11/21 00:46:58;;;;;;;9.20;4.80;;;;;;;9.37;92.91;101529.66;5074358;28;20031;-67
2021/11/21 00:49:23;;;;;;;9.85;4.53;;;;;;;9.34;93.40;101527.97;5074655;28;20032;-68
2021/11/21 00:51:49;;;;;;;11.30;5.13;;;;;;;9.33;93.29;101529.75;5075088;28;20108;-67
2021/11/21 00:54:28;;;;;;;14.85;5.25;;;;;;;9.30;93.77;101532.47;5074755;28;20386;-67
2021/11/21 00:56:54;;;;;;;10.32;5.30;;;;;;;9.33;94.12;101532.41;5074581;28;20495;-67
2021/11/21 00:59:20;;;;;;;11.50;4.97;;;;;;;9.29;94.13;101533.38;5074150;28;20033;-67
2021/11/21 01:01:50;;;;;;;8.60;4.93;;;;;;;9.26;94.91;101522.91;5074426;28;20013;-67
2021/11/21 01:04:17;;;;;;;9.43;4.78;;;;;;;9.23;95.35;101522.13;5074731;28;20024;-67
2021/11/21 01:06:43;;;;;;;10.10;4.38;;;;;;;9.22;95.58;101515.97;5091083;28;20066;-67
2021/11/21 01:09:09;;;;;;;10.55;4.40;;;;;;;9.21;96.40;101516.00;5071158;28;20388;-67
2021/11/21 01:11:36;;;;;;;12.40;4.60;;;;;;;9.20;96.50;101509.84;5074447;28;20020;-68
2021/11/21 01:14:02;;;;;;;10.02;4.93;;;;;;;9.17;96.50;101505.53;5074408;28;20103;-67
2021/11/21 01:16:28;;;;;;;10.25;4.60;;;;;;;9.15;97.13;101502.03;5083317;28;20067;-67
2021/11/21 01:18:53;;;;;;;14.27;4.90;;;;;;;9.16;97.37;101502.94;5088691;28;20064;-66
2021/11/21 01:21:18;;;;;;;9.02;4.72;;;;;;;9.18;98.05;101509.03;5054294;28;20036;-67
2021/11/21 01:23:44;;;;;;;11.88;4.97;;;;;;;9.21;97.96;101500.13;5054101;28;20024;-67
2021/11/21 01:26:09;;;;;;;10.90;4.60;;;;;;;9.20;98.39;101496.66;5058132;28;20040;-67
2021/11/21 01:28:35;;;;;;;16.27;4.57;;;;;;;9.25;98.83;101500.03;5073749;28;20025;-67
2021/11/21 01:31:01;;;;;;;13.70;5.20;;;;;;;9.25;99.65;101496.53;5073674;28;20090;-68
2021/11/21 01:33:26;;;;;;;10.52;5.35;;;;;;;9.28;99.94;101491.13;5073541;28;20488;-68
2021/11/21 01:35:52;;;;;;;12.60;4.60;;;;;;;9.32;100.00;101487.50;5073786;28;20035;-67
2021/11/21 01:38:19;;;;;;;12.32;5.43;;;;;;;9.34;100.00;101486.53;5074997;28;20029;-69
2021/11/21 01:40:45;;;;;;;10.45;5.40;;;;;;;9.30;100.00;101484.03;5073741;28;20029;-68
2021/11/21 01:43:10;;;;;;;12.15;5.47;;;;;;;9.27;100.00;101482.34;5073730;28;20086;-68
2021/11/21 01:45:36;;;;;;;11.88;5.10;;;;;;;9.30;100.00;101482.25;5073617;28;20032;-68
2021/11/21 01:48:01;;;;;;;14.27;5.47;;;;;;;9.26;100.00;101477.97;5074937;28;20035;-68
2021/11/21 01:50:31;;;;;;;12.18;5.80;;;;;;;9.26;100.00;101477.97;5073501;28;20031;-68
2021/11/21 01:52:56;;;;;;;12.70;5.47;;;;;;;9.26;100.00;101475.31;5073364;28;20119;-67
2021/11/21 01:55:23;;;;;;;15.55;5.80;;;;;;;9.23;100.00;101462.19;5073526;28;20112;-66
2021/11/21 01:57:48;;;;;;;13.20;6.28;;;;;;;9.20;100.00;101467.56;5072876;28;20032;-67
2021/11/21 02:00:14;;;;;;;13.75;5.82;;;;;;;9.19;100.00;101463.19;5074574;28;20059;-67
2021/11/21 02:02:41;;;;;;;13.65;6.18;;;;;;;9.21;100.00;101456.09;5073465;28;20051;-66
2021/11/21 02:05:08;;;;;;;14.13;7.00;;;;;;;9.21;100.00;101455.22;5072877;28;20031;-67
2021/11/21 02:07:33;;;;;;;16.17;7.13;;;;;;;9.18;100.00;101457.06;5072545;28;20028;-67
2021/11/21 02:09:59;;;;;;;9.20;6.28;;;;;;;9.19;100.00;101449.97;5083963;28;20066;-67
2021/11/21 02:12:25;;;;;;;15.80;7.10;;;;;;;9.22;100.00;101446.38;5093445;28;20024;-67
2021/11/21 02:14:50;;;;;;;14.27;7.03;;;;;;;9.24;100.00;101440.16;5093497;28;20034;-67
2021/11/21 02:17:16;;;;;;;16.85;6.82;;;;;;;9.26;100.00;101440.97;5091881;28;20119;-67
2021/11/21 02:19:41;;;;;;;14.38;6.82;;;;;;;9.31;100.00;101440.81;5075343;28;20066;-67
2021/11/21 02:22:06;;;;;;;15.05;6.75;;;;;;;9.34;100.00;101432.81;5093242;28;20028;-67
2021/11/21 02:24:32;;;;;;;11.85;6.85;;;;;;;9.35;100.00;101438.03;5091385;28;20430;-67
2021/11/21 02:26:57;;;;;;;10.70;6.90;;;;;;;9.37;100.00;101429.22;5093445;28;20039;-67
2021/11/21 02:29:23;;;;;;;16.55;7.10;;;;;;;9.35;100.00;101422.19;5079767;28;20028;-67
2021/11/21 02:31:48;;;;;;;15.43;7.25;;;;;;;9.39;100.00;101424.75;5087646;28;20059;-66
2021/11/21 02:34:14;;;;;;;11.10;7.47;;;;;;;9.40;100.00;101419.41;5092678;28;20051;-67
2021/11/21 02:36:46;;;;;;;12.02;7.57;;;;;;;9.40;100.00;101421.19;5093141;28;20036;-66
2021/11/21 02:39:11;;;;;;;;;;;;;;;9.37;100.00;101416.84;5087590;28;20376;-67
2021/11/21 02:41:37;;;;;;;11.00;6.82;;;;;;;9.35;100.00;101400.19;5072681;28;19912;-67
2021/11/21 02:44:03;;;;;;;10.35;6.70;;;;;;;9.38;100.00;101405.38;5072793;28;20025;-66
2021/11/21 02:46:31;;;;;;;12.35;7.50;;;;;;;9.38;100.00;101397.44;5072588;28;20021;-67
2021/11/21 02:48:56;;;;;;;12.52;7.50;;;;;;;9.36;100.00;101396.66;5072662;28;20028;-67
2021/11/21 02:51:22;;;;;;;14.07;8.15;;;;;;;9.33;100.00;101389.66;5072410;28;20024;-67
2021/11/21 02:53:47;;;;;;;11.85;6.68;;;;;;;9.29;100.00;101388.00;5091765;28;20418;-66
2021/11/21 02:56:15;;;;;;;12.60;7.05;;;;;;;9.30;100.00;101383.59;5092389;28;20050;-68
2021/11/21 02:58:41;;;;;;;14.43;7.60;;;;;;;9.30;100.00;101386.25;5092577;28;20028;-67
2021/11/21 03:01:20;;;;;;;12.38;7.90;;;;;;;9.27;100.00;101386.31;5081918;28;20086;-67
2021/11/21 03:03:46;;;;;;;12.18;6.88;;;;;;;9.27;100.00;101379.28;5085593;28;20117;-68
2021/11/21 03:06:11;;;;;;;11.70;6.97;;;;;;;9.29;100.00;101377.44;5092545;28;20031;-67
2021/11/21 03:08:38;;;;;;;13.98;7.38;;;;;;;9.31;100.00;101377.38;5092598;28;20025;-67
2021/11/21 03:11:16;;;;;;;10.32;6.93;;;;;;;9.29;100.00;101377.44;5069351;28;20035;-66
2021/11/21 03:13:42;;;;;;;10.80;6.80;;;;;;;9.33;100.00;101379.09;5072240;28;20032;-67
2021/11/21 03:16:08;;;;;;;11.15;6.03;;;;;;;9.32;100.00;101374.72;5072278;28;20029;-66
2021/11/21 03:18:34;;;;;;;11.90;5.50;;;;;;;9.33;100.00;101367.66;5075414;28;20107;-66
2021/11/21 03:20:59;;;;;;;11.77;6.25;;;;;;;9.33;100.00;101368.53;5076584;28;20025;-66
2021/11/21 03:23:24;;;;;;;7.72;3.70;;;;;;;9.32;100.00;101377.38;5077108;28;20048;-66
2021/11/21 03:25:50;;;;;;;6.30;3.00;;;;;;;9.28;100.00;101366.91;5076712;28;20032;-66
2021/11/21 03:28:16;;;;;;;11.35;3.65;;;;;;;9.25;100.00;101362.59;5076530;28;20028;-65
2021/11/21 03:30:42;;;;;;;7.75;3.05;;;;;;;9.24;100.00;101371.44;5076133;28;20476;-66
2021/11/21 03:33:08;;;;;;;7.65;2.58;;;;;;;9.20;100.00;101364.50;5075368;28;20051;-67
2021/11/21 03:35:33;;;;;;;5.43;2.10;;;;;;;9.15;100.00;101366.44;5077002;28;20025;-67
2021/11/21 03:37:59;;;;;;;6.93;1.80;;;;;;;9.12;100.00;101375.31;5076079;28;20036;-67
2021/11/21 03:40:24;;;;;;;6.93;1.77;;;;;;;9.09;100.00;101372.78;5076144;28;20023;-66
2021/11/21 03:42:50;;;;;;;6.10;1.35;;;;;;;9.09;100.00;101382.47;5075721;28;20036;-67
2021/11/21 03:45:16;;;;;;;8.30;1.98;;;;;;;9.06;100.00;101380.78;5077150;28;20103;-67
2021/11/21 03:47:42;;;;;;;8.30;2.25;;;;;;;9.04;100.00;101381.75;5075741;28;20078;-67
2021/11/21 03:50:10;;;;;;;6.78;1.55;;;;;;;9.02;100.00;101376.50;5075463;28;20060;-64
2021/11/21 03:52:36;;;;;;;9.40;1.73;;;;;;;8.99;100.00;101380.09;5076076;28;20031;-66
2021/11/21 03:55:01;;;;;;;8.77;1.75;;;;;;;8.94;100.00;101375.84;5075428;28;20107;-67
2021/11/21 03:57:26;;;;;;;6.30;1.33;;;;;;;8.95;100.00;101377.59;5076646;28;20043;-67
2021/11/21 03:59:52;;;;;;;5.60;1.33;;;;;;;8.93;100.00;101384.72;5076021;28;20047;-68
2021/11/21 04:02:17;;;;;;;7.00;1.20;;;;;;;8.90;100.00;101377.75;5075660;28;20468;-67
2021/11/21 04:04:42;;;;;;;6.72;1.45;;;;;;;8.90;100.00;101377.75;5074825;28;20029;-68
2021/11/21 04:07:08;;;;;;;3.95;1.08;;;;;;;8.89;100.00;101375.13;5076580;28;20476;-67
2021/11/21 04:09:33;;;;;;;6.72;1.60;;;;;;;8.89;100.00;101375.13;5075056;28;20036;-67
2021/11/21 04:11:59;;;;;;;7.82;1.20;;;;;;;8.86;100.00;101368.16;5075690;28;20017;-67
2021/11/21 04:14:24;;;;;;;12.38;1.75;;;;;;;8.83;100.00;101369.13;5075574;28;20024;-66
2021/11/21 04:16:49;;;;;;;7.60;1.70;;;;;;;8.82;100.00;101370.03;5076516;28;20154;-68
2021/11/21 04:19:15;;;;;;;7.10;1.27;;;;;;;8.81;100.00;101375.34;5075112;28;20027;-66
2021/11/21 04:21:40;;;;;;;12.60;1.45;;;;;;;8.80;100.00;101374.50;5058472;28;20385;-68
2021/11/21 04:24:12;;;;;;;10.30;1.33;;;;;;;8.80;100.00;101373.66;5055135;28;20039;-66
2021/11/21 04:26:37;;;;;;;5.53;0.95;;;;;;;8.73;100.00;101375.56;5055390;28;20032;-66
2021/11/21 04:29:03;;;;;;;8.10;1.25;;;;;;;8.77;100.00;101377.25;5072489;28;20024;-66
2021/11/21 04:31:28;;;;;;;5.60;1.17;;;;;;;8.76;100.00;101378.13;5074378;28;20029;-67
2021/11/21 04:33:54;;;;;;;7.22;1.27;;;;;;;8.73;100.00;101380.00;5074998;28;20079;-67
2021/11/21 04:36:19;;;;;;;7.00;1.08;;;;;;;8.74;100.00;101374.66;5074858;28;20116;-65
2021/11/21 04:38:45;;;;;;;4.53;1.60;;;;;;;8.73;100.00;101375.56;5076107;28;20032;-67
2021/11/21 04:41:11;;;;;;;5.10;1.13;;;;;;;8.73;100.00;101375.56;5074959;28;20021;-67
2021/11/21 04:43:36;;;;;;;3.95;0.90;;;;;;;8.71;100.00;101373.88;5074815;28;20429;-66
2021/11/21 04:46:02;;;;;;;6.65;1.48;;;;;;;8.69;100.00;101381.84;5056489;28;20028;-66
2021/11/21 04:48:27;;;;;;;10.18;1.23;;;;;;;8.66;100.00;101379.31;5074785;28;20419;-68
2021/11/21 04:50:53;;;;;;;10.13;1.17;;;;;;;8.62;100.00;101382.91;5075577;28;20056;-67
2021/11/21 04:53:18;;;;;;;5.35;1.35;;;;;;;8.60;100.00;101382.97;5074553;28;20037;-66
2021/11/21 04:55:44;;;;;;;6.53;1.25;;;;;;;8.59;100.00;101378.59;5074551;28;20480;-66
2021/11/21 04:58:10;;;;;;;7.68;1.00;;;;;;;8.57;100.00;101377.78;5074564;28;20021;-67
2021/11/21 05:00:35;;;;;;;8.55;0.95;;;;;;;8.56;100.00;101376.06;5075725;28;20416;-67
2021/11/21 05:03:01;;;;;;;5.25;1.05;;;;;;;8.55;100.00;101374.31;5074192;28;20052;-67
2021/11/21 05:05:26;;;;;;;11.20;1.40;;;;;;;8.55;100.00;101363.75;5074414;28;20024;-68
2021/11/21 05:07:52;;;;;;;7.50;1.35;;;;;;;8.55;100.00;101370.81;5074494;28;20020;-68
2021/11/21 05:10:18;;;;;;;9.90;2.00;;;;;;;8.53;100.00;101376.16;5075471;28;20532;-67
2021/11/21 05:12:44;;;;;;;9.70;1.27;;;;;;;8.52;100.00;101374.41;5074584;28;20120;-66
2021/11/21 05:15:13;;;;;;;8.70;1.45;;;;;;;8.51;100.00;101367.41;5074094;28;20035;-67
2021/11/21 05:17:38;;;;;;;14.23;1.58;;;;;;;8.52;100.00;101361.22;5073951;28;20067;-67
2021/11/21 05:20:06;;;;;;;5.85;1.10;;;;;;;8.51;100.00;101377.97;5074242;28;20056;-66
2021/11/21 05:22:31;;;;;;;8.73;1.40;;;;;;;8.50;100.00;101376.22;5088760;28;20039;-67
2021/11/21 05:24:57;;;;;;;8.15;1.58;;;;;;;8.50;100.00;101373.56;5085993;28;20037;-67
2021/11/21 05:27:24;;;;;;;8.45;1.30;;;;;;;8.50;100.00;101371.81;5074329;28;20033;-66
2021/11/21 05:29:50;;;;;;;10.90;1.30;;;;;;;8.49;100.00;101374.47;5074170;28;20025;-68
2021/11/21 05:32:16;;;;;;;7.22;1.48;;;;;;;8.49;100.00;101372.72;5081056;28;20035;-68
2021/11/21 05:34:41;;;;;;;11.10;1.40;;;;;;;8.46;100.00;101371.94;5093911;28;20024;-67
2021/11/21 05:37:07;;;;;;;11.50;1.58;;;;;;;8.48;99.54;101371.00;5073171;28;20056;-67
2021/11/21 05:39:32;;;;;;;11.30;1.58;;;;;;;8.47;99.88;101373.69;5073132;28;20077;-66
2021/11/21 05:41:58;;;;;;;12.52;1.55;;;;;;;8.46;100.00;101364.03;5073719;28;20020;-67
2021/11/21 05:44:23;;;;;;;10.23;2.10;;;;;;;8.45;99.72;101365.78;5073268;28;20028;-66
2021/11/21 05:46:49;;;;;;;13.25;1.55;;;;;;;8.41;99.91;101365.88;5066755;28;20442;-66
2021/11/21 05:49:14;;;;;;;7.32;1.58;;;;;;;8.35;99.91;101375.72;5053502;28;20029;-68
2021/11/21 05:51:39;;;;;;;13.02;1.80;;;;;;;8.30;99.97;101367.03;5053173;28;20025;-66
2021/11/21 05:54:05;;;;;;;10.52;1.15;;;;;;;8.27;99.43;101371.53;5067144;28;20033;-66
2021/11/21 05:56:30;;;;;;;8.15;1.40;;;;;;;8.24;99.08;101367.22;5073007;28;20036;-67
2021/11/21 05:58:55;;;;;;;12.50;1.65;;;;;;;8.24;97.92;101363.72;5073433;28;20036;-67
2021/11/21 06:01:21;;;;;;;10.93;1.40;;;;;;;8.24;97.50;101363.72;5054319;28;20372;-68
2021/11/21 06:03:50;;;;;;;9.38;1.30;;;;;;;8.23;96.87;101365.47;5059698;28;20111;-67
2021/11/21 06:06:15;;;;;;;11.10;1.80;;;;;;;8.20;97.21;101361.13;5072949;28;20040;-68
2021/11/21 06:08:41;;;;;;;9.60;1.33;;;;;;;8.16;96.74;101354.22;5072631;28;20361;-68
2021/11/21 06:11:06;;;;;;;13.20;1.67;;;;;;;8.11;96.97;101355.25;5073172;28;20028;-68
2021/11/21 06:13:31;;;;;;;8.45;1.45;;;;;;;8.07;97.25;101362.38;5073294;28;20112;-68
2021/11/21 06:15:57;;;;;;;12.57;1.60;;;;;;;8.07;97.12;101365.03;5074073;28;20025;-68
2021/11/21 06:18:22;;;;;;;12.57;1.73;;;;;;;8.11;95.88;101369.31;5072858;28;20460;-68
2021/11/21 06:20:47;;;;;;;7.63;1.88;;;;;;;8.15;95.33;101364.81;5073346;28;20021;-68
2021/11/21 06:23:13;;;;;;;10.38;1.75;;;;;;;8.17;94.31;101366.50;5072925;28;20127;-68
2021/11/21 06:25:42;;;;;;;9.15;1.42;;;;;;;8.18;93.51;101370.88;5081406;28;20028;-67
2021/11/21 06:28:07;;;;;;;12.63;1.45;;;;;;;8.20;92.56;101376.97;5093185;28;20357;-66
2021/11/21 06:30:32;;;;;;;6.05;1.30;;;;;;;8.20;92.82;101376.13;5074101;28;20035;-67
2021/11/21 06:32:58;;;;;;;7.95;1.58;;;;;;;8.22;91.78;101376.06;5072765;28;20049;-67
2021/11/21 06:35:23;;;;;;;9.15;1.38;;;;;;;8.19;90.95;101375.22;5073515;28;20025;-66
2021/11/21 06:37:49;;;;;;;6.78;1.20;;;;;;;8.24;90.33;101376.91;5092632;28;20024;-68
2021/11/21 06:40:15;;;;;;;7.97;1.27;;;;;;;8.21;90.31;101372.56;5082721;28;20029;-67
2021/11/21 06:42:42;;;;;;;9.38;1.48;;;;;;;8.19;91.55;101371.75;5073039;28;20025;-67
2021/11/21 06:45:08;;;;;;;8.50;1.27;;;;;;;8.19;91.61;101374.38;5072793;28;20453;-68
2021/11/21 06:47:34;;;;;;;11.68;1.63;;;;;;;8.19;91.91;101371.75;5072196;28;20393;-68
2021/11/21 06:50:01;;;;;;;7.50;1.30;;;;;;;8.16;91.83;101377.97;5072476;28;20024;-68
2021/11/21 06:52:29;;;;;;;10.60;1.52;;;;;;;8.14;91.60;101377.13;5053839;28;20025;-69
2021/11/21 06:54:55;;;;;;;7.55;1.63;;;;;;;8.11;92.11;101371.09;5052452;28;20397;-68
2021/11/21 06:57:21;;;;;;;8.13;1.30;;;;;;;8.08;92.93;101384.34;5061429;28;20035;-66
2021/11/21 06:59:46;;;;;;;10.02;1.63;;;;;;;8.04;93.36;101375.63;5076059;28;20044;-70
2021/11/21 07:02:12;;;;;;;5.93;1.83;;;;;;;8.00;93.62;101385.38;5071445;28;20028;-66
2021/11/21 07:04:37;;;;;;;10.32;1.63;;;;;;;7.93;94.58;101394.38;5054715;28;20037;-65
2021/11/21 07:07:06;;;;;;;8.23;1.70;;;;;;;7.88;95.75;101385.72;5060087;28;20111;-65
2021/11/21 07:09:32;;;;;;;10.35;1.67;;;;;;;7.84;95.63;101403.38;5072563;28;20036;-66
2021/11/21 07:11:57;;;;;;;10.10;1.55;;;;;;;7.86;95.86;101398.06;5071796;28;20388;-67
2021/11/21 07:14:22;;;;;;;8.25;1.45;;;;;;;7.91;93.08;101398.81;5072955;28;20376;-66
2021/11/21 07:16:49;;;;;;;7.70;1.30;;;;;;;7.90;92.96;101405.00;5072846;28;20029;-66
2021/11/21 07:19:15;;;;;;;7.85;1.40;;;;;;;7.82;93.53;101407.81;5071680;28;20020;-64
2021/11/21 07:21:40;;;;;;;8.70;1.67;;;;;;;7.71;93.03;101408.09;5072543;28;20032;-67
2021/11/21 07:24:06;;;;;;;6.43;1.60;;;;;;;7.72;91.85;101401.03;5054146;28;20029;-69
2021/11/21 07:26:32;;;;;;;10.65;1.90;;;;;;;7.68;91.00;101410.78;5054279;28;20025;-68
2021/11/21 07:28:58;;;;;;;6.60;1.00;;;;;;;7.64;91.67;101405.63;5072650;28;20112;-65
2021/11/21 07:31:23;;;;;;;11.65;1.52;;;;;;;7.61;90.65;101413.59;5072530;28;20499;-68
2021/11/21 07:33:48;;;;;;;7.45;1.67;;;;;;;7.58;90.18;101419.81;5071172;28;20060;-66
2021/11/21 07:36:14;;;;;;;9.07;1.30;;;;;;;7.57;89.75;101414.56;5074411;28;20090;-66
2021/11/21 07:38:40;;;;;;;12.30;1.58;;;;;;;7.50;90.37;101409.44;5092494;28;20052;-67
2021/11/21 07:41:06;;;;;;;11.45;1.67;;;;;;;7.44;90.77;101409.56;5091792;28;20016;-66
2021/11/21 07:43:31;;;;;;;11.80;1.70;;;;;;;7.40;91.24;101423.72;5071004;28;20127;-66
2021/11/21 07:45:58;;;;;;;7.32;2.03;;;;;;;7.41;90.80;101422.81;5073139;28;20477;-66
2021/11/21 07:48:24;;;;;;;7.90;1.58;;;;;;;7.48;91.11;101432.34;5071627;28;20064;-64
2021/11/21 07:50:49;;;;;;;12.65;1.63;;;;;;;7.56;90.96;101440.06;5072568;28;20385;-65
2021/11/21 07:53:15;;;;;;;6.68;1.65;;;;;;;7.62;91.39;101446.97;5072194;28;20432;-65
2021/11/21 07:55:41;;;;;;;10.25;2.03;;;;;;;7.64;91.91;101442.53;5074075;28;20036;-66
2021/11/21 07:58:06;;;;;;;8.35;1.48;;;;;;;7.62;92.63;101432.03;5069673;28;20400;-66
2021/11/21 08:00:32;;;;;;;9.55;1.52;;;;;;;7.60;92.66;101435.59;5071988;28;20055;-68
2021/11/21 08:02:57;;;;;;;10.10;1.83;;;;;;;7.60;93.33;101430.34;5071575;28;20028;-66
2021/11/21 08:05:24;;;;;;;10.13;1.80;;;;;;;7.56;92.38;101426.91;5066766;28;20028;-66
2021/11/21 08:07:49;;;;;;;10.25;2.08;;;;;;;7.55;93.03;101436.56;5063138;28;20021;-66
2021/11/21 08:10:14;;;;;;;6.05;1.40;;;;;;;7.56;92.80;101442.72;5063907;28;20036;-65
2021/11/21 08:12:40;;;;;;;9.60;1.65;;;;;;;7.58;92.14;101443.53;5075400;28;20047;-66
2021/11/21 08:15:06;;;;;;;7.50;2.33;;;;;;;7.58;92.67;101448.78;5075689;28;20384;-68
2021/11/21 08:17:32;;;;;;;12.52;1.73;;;;;;;7.58;92.87;101454.06;5075322;28;20032;-66
2021/11/21 08:19:57;;;;;;;9.55;1.70;;;;;;;7.53;93.00;101451.56;5075303;28;20400;-67
2021/11/21 08:22:22;;;;;;;10.00;1.80;;;;;;;7.49;93.42;101454.28;5069636;28;20056;-66
2021/11/21 08:24:48;;;;;;;13.40;1.80;;;;;;;7.46;92.86;101449.09;5059574;28;20035;-66
2021/11/21 08:27:14;;;;;;;10.23;2.10;;;;;;;7.43;93.16;101450.03;5069080;28;20035;-65
2021/11/21 08:29:40;;;;;;;8.32;1.60;;;;;;;7.42;93.44;101450.03;5075421;28;20464;-66
2021/11/21 08:32:06;;;;;;;6.70;2.33;;;;;;;7.37;93.82;101451.00;5075087;28;20044;-67
2021/11/21 08:34:32;;;;;;;13.63;2.85;;;;;;;7.38;94.74;101452.75;5081114;28;20060;-66
2021/11/21 08:36:58;;;;;;;11.90;2.05;;;;;;;7.38;95.76;101446.63;5095580;28;20203;-67
2021/11/21 08:39:23;;;;;;;9.60;2.30;;;;;;;7.40;95.81;101450.06;5095010;28;20547;-67
2021/11/21 08:41:53;;;;;;;9.27;2.50;;;;;;;7.41;95.99;101449.19;5081903;28;20036;-67
2021/11/21 08:44:19;;;;;;;11.50;2.58;;;;;;;7.48;96.24;101449.91;5076262;28;20033;-66
2021/11/21 08:46:45;;;;;;;11.32;2.30;;;;;;;7.52;95.80;101448.97;5073620;28;20469;-65
2021/11/21 08:49:11;;;;;;;11.60;2.55;;;;;;;7.55;95.71;101448.88;5074532;28;20028;-66
2021/11/21 08:51:37;;;;;;;11.77;2.70;;;;;;;7.57;95.97;101447.09;5075132;28;20097;-66
2021/11/21 08:54:02;;;;;;;13.80;3.20;;;;;;;7.58;96.16;101446.16;5074668;28;20036;-66
2021/11/21 08:56:27;;;;;;;16.45;3.53;;;;;;;7.64;96.19;101453.06;5074248;28;20032;-67
2021/11/21 08:58:53;;;;;;;15.85;2.78;;;;;;;7.75;95.09;101460.72;5074924;28;20032;-67
2021/11/21 09:01:18;;;;;;;14.60;2.40;;;;;;;7.77;91.70;101451.03;5073170;28;20037;-67
2021/11/21 09:03:43;;;;;;;14.00;2.55;;;;;;;7.76;90.38;101454.56;5074199;28;20086;-67
2021/11/21 09:06:09;;;;;;;8.65;1.70;;;;;;;7.71;89.05;101462.56;5075779;28;20085;-67
2021/11/21 09:08:34;;;;;;;11.57;1.88;;;;;;;7.71;86.94;101447.63;5057395;28;20049;-65
2021/11/21 09:11:09;;;;;;;7.93;1.40;;;;;;;7.75;87.01;101455.44;5073077;28;20032;-65
2021/11/21 09:13:34;;;;;;;7.63;1.50;;;;;;;7.79;86.82;101452.72;5072949;28;20380;-65
2021/11/21 09:15:59;;;;;;;7.82;1.63;;;;;;;7.88;85.42;101454.28;5073357;28;20069;-66
2021/11/21 09:18:26;;;;;;;7.13;1.30;;;;;;;8.13;85.85;101448.41;5072972;28;20028;-64
2021/11/21 09:20:53;;;;;;;8.10;1.40;;;;;;;8.66;82.68;101445.31;5073818;28;20496;-65
2021/11/21 09:23:19;;;;;;;5.18;1.33;;;;;;;9.26;81.48;101453.31;5074305;28;20024;-66
2021/11/21 09:25:46;;;;;;;15.70;2.45;;;;;;;9.52;78.91;101449.88;5072764;28;20035;-64
2021/11/21 09:28:11;;;;;;;8.93;1.67;;;;;;;9.49;77.69;101450.84;5076477;28;20064;-66
2021/11/21 09:30:38;;;;;;;13.85;2.00;;;;;;;9.62;78.10;101445.19;5072704;28;20082;-67
2021/11/21 09:33:04;;;;;;;12.32;1.98;;;;;;;10.15;75.17;101453.19;5073829;28;20044;-66
2021/11/21 09:35:29;;;;;;;11.07;3.20;;;;;;;10.56;75.15;101458.03;5063588;28;20027;-65
2021/11/21 09:37:55;;;;;;;10.40;1.80;;;;;;;11.48;70.68;101456.41;5064376;28;20029;-65
2021/11/21 09:40:21;;;;;;;7.78;1.63;;;;;;;12.15;66.52;101451.16;5071639;28;20135;-65
2021/11/21 09:42:47;;;;;;;12.30;1.60;;;;;;;12.84;64.88;101462.38;5061263;28;20063;-64
2021/11/21 09:45:17;;;;;;;10.23;1.70;;;;;;;13.60;60.26;101462.47;5067637;28;20094;-66
2021/11/21 09:47:52;;;;;;;9.65;1.90;;;;;;;13.89;59.17;101463.72;5041935;28;20052;-63
2021/11/21 09:50:19;;;;;;;7.20;1.83;;;;;;;13.76;58.57;101460.81;5063971;28;20028;-65
2021/11/21 09:52:45;;;;;;;8.57;2.40;;;;;;;14.13;58.72;101459.94;5070811;28;20105;-65
2021/11/21 09:55:10;;;;;;;8.30;1.80;;;;;;;14.41;56.99;101462.94;5063343;28;20465;-65
2021/11/21 09:57:36;;;;;;;5.15;1.60;;;;;;;14.80;54.98;101455.66;5071694;28;20033;-65
2021/11/21 10:00:11;;;;;;;9.15;1.75;;;;;;;14.82;54.73;101459.09;5069681;28;20130;-65
2021/11/21 10:02:39;;;;;;;8.60;2.40;;;;;;;15.49;52.52;101453.69;5059632;28;20025;-65
2021/11/21 10:05:08;;;;;;;8.57;2.13;;;;;;;15.29;53.42;101459.28;5068116;28;20052;-65
2021/11/21 10:07:36;;;;;;;6.32;1.70;;;;;;;15.44;51.77;101469.09;5056771;28;20097;-66
2021/11/21 10:10:05;;;;;;;5.57;1.30;;;;;;;14.68;53.73;101456.28;5062328;28;20094;-66
2021/11/21 10:12:36;;;;;;;6.72;1.75;;;;;;;14.93;51.81;101477.19;5054393;28;20028;-64
2021/11/21 10:15:04;;;;;;;5.50;1.52;;;;;;;14.88;53.69;101455.22;5035916;28;20036;-65
2021/11/21 10:17:32;;;;;;;5.40;1.17;;;;;;;15.50;50.39;101462.56;5053527;28;20128;-64
2021/11/21 10:20:15;;;;;;;5.40;2.03;;;;;;;15.54;52.51;101464.13;5066812;28;20032;-66
2021/11/21 10:22:53;;;;;;;7.22;1.58;;;;;;;15.78;49.72;101463.69;5063318;28;20024;-65
2021/11/21 10:25:33;;;;;;;8.50;1.90;;;;;;;15.27;51.06;101456.69;5063872;28;20025;-64
2021/11/21 10:28:23;;;;;;;8.15;1.70;;;;;;;14.97;52.62;101469.88;5056239;28;20052;-66
2021/11/21 10:31:06;;;;;;;5.85;1.60;;;;;;;15.48;51.66;101459.97;5069947;28;20024;-65
2021/11/21 10:33:36;;;;;;;5.50;1.88;;;;;;;15.39;51.08;101456.00;5071804;28;20040;-65
2021/11/21 10:36:08;;;;;;;9.00;1.67;;;;;;;15.40;53.24;101465.75;5062716;28;20051;-65
2021/11/21 10:38:43;;;;;;;3.53;1.05;;;;;;;14.97;50.40;101460.06;5064569;28;20025;-68
2021/11/21 10:41:20;;;;;;;6.55;1.92;;;;;;;14.87;52.35;101466.84;5071850;28;20548;-66
2021/11/21 10:43:54;;;;;;;5.15;1.40;;;;;;;14.96;48.97;101471.72;5071090;28;20468;-68
2021/11/21 10:46:26;;;;;;;6.07;1.60;;;;;;;15.34;49.30;101467.91;5056521;28;20017;-64
2021/11/21 10:48:51;;;;;;;;;;;;;;;15.73;47.67;101466.63;5072451;28;20056;-65
2021/11/21 10:51:22;;;;;;;10.60;3.75;;;;;;;16.09;47.12;101461.94;5070965;28;19963;-66
2021/11/21 10:53:48;;;;;;;8.68;2.10;;;;;;;16.49;47.15;101462.28;5061135;28;20036;-65
2021/11/21 10:56:14;;;;;;;15.63;4.65;;;;;;;16.69;46.69;101459.25;5052254;28;20036;-67
2021/11/21 10:58:50;;;;;;;9.63;2.88;;;;;;;16.64;46.32;101457.81;5056676;28;20031;-67
2021/11/21 11:01:24;;;;;;;5.18;1.23;;;;;;;15.79;48.14;101460.06;5056093;28;20150;-65
2021/11/21 11:04:14;;;;;;;10.48;3.03;;;;;;;16.17;50.12;101463.22;5072549;28;20105;-66
2021/11/21 11:06:41;;;;;;;7.15;1.40;;;;;;;16.44;48.25;101445.66;5071402;28;20029;-66
2021/11/21 11:09:23;;;;;;;6.35;2.13;;;;;;;15.98;48.88;101466.09;5070061;28;20060;-68
2021/11/21 11:11:52;;;;;;;11.30;2.60;;;;;;;14.05;53.23;101466.53;5064522;28;20021;-67
2021/11/21 11:14:18;;;;;;;8.23;1.90;;;;;;;12.76;58.96;101470.69;5079923;28;20107;-67
2021/11/21 11:16:51;;;;;;;9.10;1.83;;;;;;;11.85;62.92;101467.34;5072705;28;20020;-66
2021/11/21 11:19:18;;;;;;;9.45;1.98;;;;;;;11.17;65.45;101464.66;5068999;28;20033;-66
2021/11/21 11:21:46;;;;;;;7.80;1.55;;;;;;;10.79;65.88;101469.56;5052442;28;20036;-68
2021/11/21 11:24:12;;;;;;;12.50;1.92;;;;;;;10.97;66.09;101474.22;5067691;28;20028;-67